sensor_id;sensor_type;location;lat;lon;timestamp;pressure;altitude;pressure_sealevel;temperature;humidity
804;BME280;25687;49.976;8.240;2023-02-26T00:00:14;99854.50;;;-0.91;100.00
804;BME280;25687;49.976;8.240;2023-02-26T00:02:43;99852.78;;;-0.88;100.00
804;BME280;25687;49.976;8.240;2023-02-26T00:05:10;99857.84;;;-0.88;100.00
804;BME280;25687;49.976;8.240;2023-02-26T00:07:37;99859.44;;;-0.80;100.00
804;BME280;25687;49.976;8.240;2023-02-26T00:10:05;99856.72;;;-0.65;100.00
804;BME280;25687;49.976;8.240;2023-02-26T00:12:31;99855.00;;;-0.65;100.00
804;BME280;25687;49.976;8.240;2023-02-26T00:14:57;99856.75;;;-0.70;100.00
804;BME280;25687;49.976;8.240;2023-02-26T00:17:36;99861.78;;;-0.67;100.00
804;BME280;25687;49.976;8.240;2023-02-26T00:20:09;99863.63;;;-0.79;100.00
804;BME280;25687;49.976;8.240;2023-02-26T00:22:42;99865.22;;;-0.72;100.00
804;BME280;25687;49.976;8.240;2023-02-26T00:25:09;99862.69;;;-0.72;100.00
804;BME280;25687;49.976;8.240;2023-02-26T00:27:34;99855.00;;;-0.61;100.00
804;BME280;25687;49.976;8.240;2023-02-26T00:30:03;99870.19;;;-0.63;100.00
804;BME280;25687;49.976;8.240;2023-02-26T00:32:29;99868.50;;;-0.64;100.00
804;BME280;25687;49.976;8.240;2023-02-26T00:34:55;99864.03;;;-0.45;100.00
804;BME280;25687;49.976;8.240;2023-02-26T00:37:30;99864.88;;;-0.43;100.00
804;BME280;25687;49.976;8.240;2023-02-26T00:40:37;99863.06;;;-0.36;100.00
804;BME280;25687;49.976;8.240;2023-02-26T00:43:06;99875.72;;;-0.35;100.00
804;BME280;25687;49.976;8.240;2023-02-26T00:45:33;99874.84;;;-0.32;100.00
804;BME280;25687;49.976;8.240;2023-02-26T00:51:30;99873.09;;;-0.28;100.00
804;BME280;25687;49.976;8.240;2023-02-26T00:56:28;99885.56;;;-0.18;100.00
804;BME280;25687;49.976;8.240;2023-02-26T00:58:54;99882.16;;;-0.15;100.00
804;BME280;25687;49.976;8.240;2023-02-26T01:01:19;99886.19;;;-0.02;100.00
804;BME280;25687;49.976;8.240;2023-02-26T01:03:44;99878.53;;;0.05;100.00
804;BME280;25687;49.976;8.240;2023-02-26T01:06:12;99884.41;;;0.07;100.00
804;BME280;25687;49.976;8.240;2023-02-26T01:08:44;99885.34;;;-0.01;100.00
804;BME280;25687;49.976;8.240;2023-02-26T01:11:12;99891.31;;;-0.05;99.60
804;BME280;25687;49.976;8.240;2023-02-26T01:13:38;99892.81;;;0.09;100.00
804;BME280;25687;49.976;8.240;2023-02-26T01:16:10;99893.03;;;-0.07;99.42
804;BME280;25687;49.976;8.240;2023-02-26T01:18:58;99889.69;;;-0.10;99.69
804;BME280;25687;49.976;8.240;2023-02-26T01:21:33;99893.78;;;-0.02;99.38
804;BME280;25687;49.976;8.240;2023-02-26T01:24:02;99891.97;;;0.08;99.13
804;BME280;25687;49.976;8.240;2023-02-26T01:26:29;99897.00;;;0.11;99.15
804;BME280;25687;49.976;8.240;2023-02-26T01:28:55;99890.31;;;0.06;98.89
804;BME280;25687;49.976;8.240;2023-02-26T01:31:42;99890.41;;;-0.01;99.35
804;BME280;25687;49.976;8.240;2023-02-26T01:34:18;99896.31;;;-0.02;99.55
804;BME280;25687;49.976;8.240;2023-02-26T01:36:55;99894.75;;;-0.10;99.58
804;BME280;25687;49.976;8.240;2023-02-26T01:39:25;99889.66;;;-0.07;100.00
804;BME280;25687;49.976;8.240;2023-02-26T01:41:55;99896.31;;;-0.02;99.80
804;BME280;25687;49.976;8.240;2023-02-26T01:44:47;99897.13;;;0.01;99.97
804;BME280;25687;49.976;8.240;2023-02-26T01:47:38;99892.97;;;-0.02;99.78
804;BME280;25687;49.976;8.240;2023-02-26T01:50:34;99898.81;;;0.02;99.75
804;BME280;25687;49.976;8.240;2023-02-26T01:55:48;99905.59;;;-0.01;99.97
804;BME280;25687;49.976;8.240;2023-02-26T01:58:14;99903.88;;;0.02;100.00
804;BME280;25687;49.976;8.240;2023-02-26T02:00:43;99901.66;;;-0.22;100.00
804;BME280;25687;49.976;8.240;2023-02-26T02:03:09;99903.19;;;-0.10;100.00
804;BME280;25687;49.976;8.240;2023-02-26T02:05:42;99898.06;;;-0.05;100.00
804;BME280;25687;49.976;8.240;2023-02-26T02:08:10;99901.56;;;-0.15;100.00
804;BME280;25687;49.976;8.240;2023-02-26T02:10:40;99909.09;;;-0.11;100.00
804;BME280;25687;49.976;8.240;2023-02-26T02:13:16;99909.28;;;-0.25;100.00
804;BME280;25687;49.976;8.240;2023-02-26T02:15:50;99917.72;;;-0.26;100.00
804;BME280;25687;49.976;8.240;2023-02-26T02:18:21;99919.47;;;-0.29;100.00
804;BME280;25687;49.976;8.240;2023-02-26T02:23:47;99913.47;;;-0.22;100.00
804;BME280;25687;49.976;8.240;2023-02-26T02:31:32;99919.59;;;-0.42;100.00
804;BME280;25687;49.976;8.240;2023-02-26T02:34:10;99921.28;;;-0.42;100.00
804;BME280;25687;49.976;8.240;2023-02-26T02:36:44;99927.16;;;-0.37;100.00
804;BME280;25687;49.976;8.240;2023-02-26T02:39:18;99924.63;;;-0.40;100.00
804;BME280;25687;49.976;8.240;2023-02-26T02:41:59;99933.91;;;-0.42;100.00
804;BME280;25687;49.976;8.240;2023-02-26T02:44:27;99933.88;;;-0.38;100.00
804;BME280;25687;49.976;8.240;2023-02-26T02:46:56;99937.31;;;-0.45;100.00
804;BME280;25687;49.976;8.240;2023-02-26T02:49:40;99934.69;;;-0.36;100.00
804;BME280;25687;49.976;8.240;2023-02-26T02:52:13;99932.28;;;-0.45;100.00
804;BME280;25687;49.976;8.240;2023-02-26T02:54:45;99947.56;;;-0.54;100.00
804;BME280;25687;49.976;8.240;2023-02-26T02:57:20;99942.53;;;-0.57;100.00
804;BME280;25687;49.976;8.240;2023-02-26T02:59:51;99946.69;;;-0.52;100.00
804;BME280;25687;49.976;8.240;2023-02-26T03:05:13;99956.88;;;-0.59;100.00
804;BME280;25687;49.976;8.240;2023-02-26T03:07:45;99958.47;;;-0.54;100.00
804;BME280;25687;49.976;8.240;2023-02-26T03:10:11;99969.28;;;-0.39;100.00
804;BME280;25687;49.976;8.240;2023-02-26T03:12:36;99972.59;;;-0.34;100.00
804;BME280;25687;49.976;8.240;2023-02-26T03:15:02;99967.69;;;-0.46;100.00
804;BME280;25687;49.976;8.240;2023-02-26T03:20:28;99964.78;;;-0.90;100.00
804;BME280;25687;49.976;8.240;2023-02-26T03:23:13;99968.19;;;-0.98;100.00
804;BME280;25687;49.976;8.240;2023-02-26T03:25:48;99966.56;;;-1.05;100.00
804;BME280;25687;49.976;8.240;2023-02-26T03:28:30;99973.34;;;-1.08;100.00
804;BME280;25687;49.976;8.240;2023-02-26T03:36:05;99980.25;;;-1.31;100.00
804;BME280;25687;49.976;8.240;2023-02-26T03:38:41;99974.41;;;-1.37;100.00
804;BME280;25687;49.976;8.240;2023-02-26T03:41:11;99982.75;;;-1.29;100.00
804;BME280;25687;49.976;8.240;2023-02-26T03:43:46;99982.00;;;-1.39;100.00
804;BME280;25687;49.976;8.240;2023-02-26T03:46:23;99987.00;;;-1.34;100.00
804;BME280;25687;49.976;8.240;2023-02-26T03:48:51;99991.28;;;-1.42;100.00
804;BME280;25687;49.976;8.240;2023-02-26T03:51:19;99990.47;;;-1.46;100.00
804;BME280;25687;49.976;8.240;2023-02-26T03:53:52;99990.47;;;-1.46;100.00
804;BME280;25687;49.976;8.240;2023-02-26T03:56:25;99998.84;;;-1.44;100.00
804;BME280;25687;49.976;8.240;2023-02-26T03:58:52;100001.44;;;-1.55;100.00
804;BME280;25687;49.976;8.240;2023-02-26T04:01:22;100012.34;;;-1.50;100.00
804;BME280;25687;49.976;8.240;2023-02-26T04:03:59;100001.41;;;-1.50;100.00
804;BME280;25687;49.976;8.240;2023-02-26T04:06:28;100000.63;;;-1.57;100.00
804;BME280;25687;49.976;8.240;2023-02-26T04:08:54;100014.09;;;-1.63;100.00
804;BME280;25687;49.976;8.240;2023-02-26T04:11:21;100014.09;;;-1.63;100.00
804;BME280;25687;49.976;8.240;2023-02-26T04:13:47;100022.53;;;-1.64;100.00
804;BME280;25687;49.976;8.240;2023-02-26T04:16:14;100011.56;;;-1.59;100.00
804;BME280;25687;49.976;8.240;2023-02-26T04:18:39;100019.19;;;-1.72;100.00
804;BME280;25687;49.976;8.240;2023-02-26T04:21:05;100024.25;;;-1.73;100.00
804;BME280;25687;49.976;8.240;2023-02-26T04:23:31;100025.97;;;-1.77;100.00
804;BME280;25687;49.976;8.240;2023-02-26T04:25:56;100030.97;;;-1.74;100.00
804;BME280;25687;49.976;8.240;2023-02-26T04:28:22;100036.06;;;-1.77;100.00
804;BME280;25687;49.976;8.240;2023-02-26T04:30:47;100037.72;;;-1.76;100.00
804;BME280;25687;49.976;8.240;2023-02-26T04:33:13;100038.59;;;-1.82;100.00
804;BME280;25687;49.976;8.240;2023-02-26T04:35:40;100045.28;;;-1.74;100.00
804;BME280;25687;49.976;8.240;2023-02-26T04:38:05;100046.16;;;-1.79;100.00
804;BME280;25687;49.976;8.240;2023-02-26T04:40:30;100047.91;;;-1.95;100.00
804;BME280;25687;49.976;8.240;2023-02-26T04:42:56;100040.31;;;-1.91;100.00
804;BME280;25687;49.976;8.240;2023-02-26T04:45:21;100042.88;;;-2.05;100.00
804;BME280;25687;49.976;8.240;2023-02-26T04:47:47;100047.94;;;-2.15;100.00
804;BME280;25687;49.976;8.240;2023-02-26T04:50:12;100051.31;;;-2.14;100.00
804;BME280;25687;49.976;8.240;2023-02-26T04:52:37;100054.63;;;-2.03;100.00
804;BME280;25687;49.976;8.240;2023-02-26T04:55:03;100057.97;;;-1.98;100.00
804;BME280;25687;49.976;8.240;2023-02-26T04:57:28;100061.34;;;-1.99;100.00
804;BME280;25687;49.976;8.240;2023-02-26T04:59:53;100066.41;;;-2.05;100.00
804;BME280;25687;49.976;8.240;2023-02-26T05:02:19;100071.47;;;-2.08;100.00
804;BME280;25687;49.976;8.240;2023-02-26T05:04:44;100072.31;;;-2.20;100.00
804;BME280;25687;49.976;8.240;2023-02-26T05:07:10;100071.50;;;-2.22;100.00
804;BME280;25687;49.976;8.240;2023-02-26T05:09:36;100066.47;;;-2.25;100.00
804;BME280;25687;49.976;8.240;2023-02-26T05:12:01;100070.66;;;-2.18;100.00
804;BME280;25687;49.976;8.240;2023-02-26T05:14:27;100077.41;;;-2.34;100.00
804;BME280;25687;49.976;8.240;2023-02-26T05:16:52;100068.19;;;-2.38;100.00
804;BME280;25687;49.976;8.240;2023-02-26T05:19:17;100075.75;;;-2.42;100.00
804;BME280;25687;49.976;8.240;2023-02-26T05:21:43;100085.81;;;-2.36;100.00
804;BME280;25687;49.976;8.240;2023-02-26T05:24:08;100089.16;;;-2.25;100.00
804;BME280;25687;49.976;8.240;2023-02-26T05:26:33;100086.63;;;-2.20;100.00
804;BME280;25687;49.976;8.240;2023-02-26T05:28:59;100084.09;;;-2.20;100.00
804;BME280;25687;49.976;8.240;2023-02-26T05:31:24;100083.25;;;-2.21;100.00
804;BME280;25687;49.976;8.240;2023-02-26T05:33:50;100096.69;;;-2.13;100.00
804;BME280;25687;49.976;8.240;2023-02-26T05:36:16;100102.56;;;-2.12;100.00
804;BME280;25687;49.976;8.240;2023-02-26T05:38:41;100113.47;;;-2.05;100.00
804;BME280;25687;49.976;8.240;2023-02-26T05:41:06;100113.47;;;-2.05;100.00
804;BME280;25687;49.976;8.240;2023-02-26T05:43:31;100121.03;;;-2.07;100.00
804;BME280;25687;49.976;8.240;2023-02-26T05:45:58;100110.97;;;-2.12;100.00
804;BME280;25687;49.976;8.240;2023-02-26T05:48:23;100116.84;;;-2.09;100.00
804;BME280;25687;49.976;8.240;2023-02-26T05:50:49;100106.78;;;-2.16;100.00
804;BME280;25687;49.976;8.240;2023-02-26T05:53:14;100113.50;;;-2.18;100.00
804;BME280;25687;49.976;8.240;2023-02-26T05:55:40;100116.84;;;-2.17;100.00
804;BME280;25687;49.976;8.240;2023-02-26T05:58:05;100115.16;;;-2.20;100.00
804;BME280;25687;49.976;8.240;2023-02-26T06:00:30;100115.19;;;-2.21;100.00
804;BME280;25687;49.976;8.240;2023-02-26T06:02:56;100126.09;;;-2.21;100.00
804;BME280;25687;49.976;8.240;2023-02-26T06:05:21;100125.25;;;-2.14;100.00
804;BME280;25687;49.976;8.240;2023-02-26T06:07:46;100124.44;;;-2.22;100.00
804;BME280;25687;49.976;8.240;2023-02-26T06:10:12;100128.63;;;-2.18;100.00
804;BME280;25687;49.976;8.240;2023-02-26T06:12:37;100133.66;;;-2.16;100.00
804;BME280;25687;49.976;8.240;2023-02-26T06:15:03;100133.66;;;-2.13;100.00
804;BME280;25687;49.976;8.240;2023-02-26T06:17:29;100141.22;;;-2.13;100.00
804;BME280;25687;49.976;8.240;2023-02-26T06:19:54;100146.25;;;-2.12;100.00
804;BME280;25687;49.976;8.240;2023-02-26T06:22:19;100149.63;;;-2.14;100.00
804;BME280;25687;49.976;8.240;2023-02-26T06:24:45;100141.19;;;-2.15;100.00
804;BME280;25687;49.976;8.240;2023-02-26T06:27:10;100149.59;;;-2.11;100.00
804;BME280;25687;49.976;8.240;2023-02-26T06:29:35;100151.28;;;-2.08;100.00
804;BME280;25687;49.976;8.240;2023-02-26T06:32:02;100162.22;;;-2.08;100.00
804;BME280;25687;49.976;8.240;2023-02-26T06:34:29;100156.34;;;-2.12;100.00
804;BME280;25687;49.976;8.240;2023-02-26T06:36:54;100157.16;;;-2.08;100.00
804;BME280;25687;49.976;8.240;2023-02-26T06:39:20;100161.38;;;-2.10;100.00
804;BME280;25687;49.976;8.240;2023-02-26T06:41:45;100163.06;;;-2.12;100.00
804;BME280;25687;49.976;8.240;2023-02-26T06:44:10;100164.72;;;-2.08;100.00
804;BME280;25687;49.976;8.240;2023-02-26T06:46:36;100179.00;;;-2.05;100.00
804;BME280;25687;49.976;8.240;2023-02-26T06:49:02;100186.56;;;-2.01;100.00
804;BME280;25687;49.976;8.240;2023-02-26T06:51:27;100187.41;;;-2.02;100.00
804;BME280;25687;49.976;8.240;2023-02-26T06:53:53;100186.56;;;-2.04;100.00
804;BME280;25687;49.976;8.240;2023-02-26T06:56:18;100192.44;;;-1.97;100.00
804;BME280;25687;49.976;8.240;2023-02-26T06:58:43;100204.19;;;-1.93;100.00
804;BME280;25687;49.976;8.240;2023-02-26T07:01:09;100205.88;;;-1.86;100.00
804;BME280;25687;49.976;8.240;2023-02-26T07:03:34;100210.06;;;-1.79;100.00
804;BME280;25687;49.976;8.240;2023-02-26T07:06:00;100216.78;;;-1.81;100.00
804;BME280;25687;49.976;8.240;2023-02-26T07:08:25;100227.69;;;-1.74;100.00
804;BME280;25687;49.976;8.240;2023-02-26T07:10:50;100224.31;;;-1.67;100.00
804;BME280;25687;49.976;8.240;2023-02-26T07:13:17;100227.69;;;-1.63;100.00
804;BME280;25687;49.976;8.240;2023-02-26T07:15:43;100232.72;;;-1.57;100.00
804;BME280;25687;49.976;8.240;2023-02-26T07:18:08;100240.25;;;-1.41;100.00
804;BME280;25687;49.976;8.240;2023-02-26T07:20:34;100252.78;;;-1.21;100.00
804;BME280;25687;49.976;8.240;2023-02-26T07:22:59;100250.09;;;-0.84;100.00
804;BME280;25687;49.976;8.240;2023-02-26T07:25:24;100258.50;;;-0.82;100.00
804;BME280;25687;49.976;8.240;2023-02-26T07:27:50;100268.69;;;-0.99;100.00
804;BME280;25687;49.976;8.240;2023-02-26T07:30:16;100276.22;;;-0.90;100.00
804;BME280;25687;49.976;8.240;2023-02-26T07:32:42;100264.13;;;-0.37;100.00
804;BME280;25687;49.976;8.240;2023-02-26T07:35:08;100270.53;;;0.09;100.00
804;BME280;25687;49.976;8.240;2023-02-26T07:37:34;100273.41;;;0.61;100.00
804;BME280;25687;49.976;8.240;2023-02-26T07:39:59;100274.56;;;0.29;100.00
804;BME280;25687;49.976;8.240;2023-02-26T07:42:24;100279.75;;;0.15;100.00
804;BME280;25687;49.976;8.240;2023-02-26T07:44:49;100289.03;;;0.13;100.00
804;BME280;25687;49.976;8.240;2023-02-26T07:47:15;100288.31;;;-0.02;100.00
804;BME280;25687;49.976;8.240;2023-02-26T07:49:40;100286.81;;;-0.26;100.00
804;BME280;25687;49.976;8.240;2023-02-26T07:52:06;100286.81;;;-0.24;100.00
804;BME280;25687;49.976;8.240;2023-02-26T07:54:36;100274.84;;;-0.05;100.00
804;BME280;25687;49.976;8.240;2023-02-26T07:57:02;100271.38;;;0.08;100.00
804;BME280;25687;49.976;8.240;2023-02-26T07:59:28;100284.22;;;-0.18;100.00
804;BME280;25687;49.976;8.240;2023-02-26T08:01:53;100280.94;;;-0.29;100.00
804;BME280;25687;49.976;8.240;2023-02-26T08:04:18;100292.81;;;-0.42;98.48
804;BME280;25687;49.976;8.240;2023-02-26T08:06:44;100294.47;;;-0.37;98.77
804;BME280;25687;49.976;8.240;2023-02-26T08:09:10;100298.56;;;-0.20;97.00
804;BME280;25687;49.976;8.240;2023-02-26T08:11:35;100304.31;;;-0.03;95.83
804;BME280;25687;49.976;8.240;2023-02-26T08:14:05;100296.88;;;-0.18;94.54
804;BME280;25687;49.976;8.240;2023-02-26T08:16:31;100307.81;;;-0.18;93.99
804;BME280;25687;49.976;8.240;2023-02-26T08:18:56;100306.13;;;-0.15;94.36
804;BME280;25687;49.976;8.240;2023-02-26T08:21:22;100308.56;;;0.00;93.85
804;BME280;25687;49.976;8.240;2023-02-26T08:23:47;100311.06;;;0.02;93.10
804;BME280;25687;49.976;8.240;2023-02-26T08:26:13;100319.34;;;0.21;91.71
804;BME280;25687;49.976;8.240;2023-02-26T08:28:39;100319.91;;;0.52;88.69
804;BME280;25687;49.976;8.240;2023-02-26T08:31:04;100325.63;;;0.68;84.97
804;BME280;25687;49.976;8.240;2023-02-26T08:33:30;100335.06;;;0.58;85.50
804;BME280;25687;49.976;8.240;2023-02-26T08:35:56;100333.56;;;0.31;87.02
804;BME280;25687;49.976;8.240;2023-02-26T08:38:24;100332.69;;;0.37;87.77
804;BME280;25687;49.976;8.240;2023-02-26T08:40:49;100337.78;;;0.32;88.54
804;BME280;25687;49.976;8.240;2023-02-26T08:43:16;100352.34;;;0.05;88.25
804;BME280;25687;49.976;8.240;2023-02-26T08:45:42;100350.56;;;0.21;88.19
804;BME280;25687;49.976;8.240;2023-02-26T08:48:07;100358.09;;;0.27;86.68
804;BME280;25687;49.976;8.240;2023-02-26T08:50:33;100365.63;;;0.32;87.01
804;BME280;25687;49.976;8.240;2023-02-26T08:52:58;100350.56;;;0.18;86.98
804;BME280;25687;49.976;8.240;2023-02-26T08:55:23;100354.56;;;0.44;87.23
804;BME280;25687;49.976;8.240;2023-02-26T08:57:49;100361.41;;;0.31;88.45
804;BME280;25687;49.976;8.240;2023-02-26T09:00:14;100380.94;;;0.17;88.52
804;BME280;25687;49.976;8.240;2023-02-26T09:02:42;100365.03;;;-0.03;91.05
804;BME280;25687;49.976;8.240;2023-02-26T09:05:08;100374.38;;;-0.11;92.55
804;BME280;25687;49.976;8.240;2023-02-26T09:07:34;100374.28;;;0.03;91.11
804;BME280;25687;49.976;8.240;2023-02-26T09:09:59;100389.44;;;0.08;90.79
804;BME280;25687;49.976;8.240;2023-02-26T09:12:24;100382.72;;;0.02;92.39
804;BME280;25687;49.976;8.240;2023-02-26T09:14:50;100412.19;;;0.05;90.28
804;BME280;25687;49.976;8.240;2023-02-26T09:17:15;100395.22;;;0.21;90.28
804;BME280;25687;49.976;8.240;2023-02-26T09:19:40;100399.56;;;0.05;86.89
804;BME280;25687;49.976;8.240;2023-02-26T09:22:06;100405.50;;;-0.03;87.68
804;BME280;25687;49.976;8.240;2023-02-26T09:24:31;100425.72;;;0.01;87.32
804;BME280;25687;49.976;8.240;2023-02-26T09:26:56;100418.94;;;0.09;85.92
804;BME280;25687;49.976;8.240;2023-02-26T09:29:22;100412.25;;;-0.02;84.09
804;BME280;25687;49.976;8.240;2023-02-26T09:31:47;100413.09;;;-0.03;85.08
804;BME280;25687;49.976;8.240;2023-02-26T09:34:12;100422.25;;;0.12;83.51
804;BME280;25687;49.976;8.240;2023-02-26T09:36:38;100417.06;;;0.36;82.33
804;BME280;25687;49.976;8.240;2023-02-26T09:39:04;100406.72;;;0.63;81.85
804;BME280;25687;49.976;8.240;2023-02-26T09:41:36;100420.19;;;0.67;78.59
804;BME280;25687;49.976;8.240;2023-02-26T09:44:07;100427.78;;;0.66;75.76
804;BME280;25687;49.976;8.240;2023-02-26T09:49:26;100426.59;;;1.05;69.13
804;BME280;25687;49.976;8.240;2023-02-26T09:52:22;100414.72;;;1.10;69.52
804;BME280;25687;49.976;8.240;2023-02-26T09:54:52;100431.25;;;1.44;69.12
804;BME280;25687;49.976;8.240;2023-02-26T09:57:28;100421.69;;;0.88;72.16
804;BME280;25687;49.976;8.240;2023-02-26T09:59:54;100431.88;;;0.84;74.70
804;BME280;25687;49.976;8.240;2023-02-26T10:02:25;100430.47;;;0.48;73.92
804;BME280;25687;49.976;8.240;2023-02-26T10:05:05;100431.34;;;0.46;76.90
804;BME280;25687;49.976;8.240;2023-02-26T10:12:49;100437.34;;;0.32;76.47
804;BME280;25687;49.976;8.240;2023-02-26T10:15:22;100440.38;;;0.75;73.30
804;BME280;25687;49.976;8.240;2023-02-26T10:18:04;100446.41;;;0.61;73.78
804;BME280;25687;49.976;8.240;2023-02-26T10:20:55;100451.31;;;0.80;73.17
804;BME280;25687;49.976;8.240;2023-02-26T10:23:35;100454.19;;;2.61;63.43
804;BME280;25687;49.976;8.240;2023-02-26T10:26:17;100451.31;;;3.31;58.21
804;BME280;25687;49.976;8.240;2023-02-26T10:28:52;100448.41;;;3.91;55.60
804;BME280;25687;49.976;8.240;2023-02-26T10:31:22;100453.22;;;3.64;53.59
804;BME280;25687;49.976;8.240;2023-02-26T10:36:46;100449.28;;;2.50;55.24
804;BME280;25687;49.976;8.240;2023-02-26T10:39:26;100454.66;;;2.30;56.27
804;BME280;25687;49.976;8.240;2023-02-26T10:41:58;100459.78;;;2.27;57.21
804;BME280;25687;49.976;8.240;2023-02-26T10:44:35;100474.56;;;1.97;58.29
804;BME280;25687;49.976;8.240;2023-02-26T10:49:52;100473.41;;;1.54;60.22
804;BME280;25687;49.976;8.240;2023-02-26T10:52:22;100475.84;;;1.60;61.75
804;BME280;25687;49.976;8.240;2023-02-26T10:55:15;100479.44;;;1.42;63.69
804;BME280;25687;49.976;8.240;2023-02-26T10:57:51;100482.91;;;1.34;66.44
804;BME280;25687;49.976;8.240;2023-02-26T11:00:19;100486.78;;;1.66;64.99
804;BME280;25687;49.976;8.240;2023-02-26T11:02:49;100484.19;;;1.70;64.36
804;BME280;25687;49.976;8.240;2023-02-26T11:05:21;100489.63;;;1.39;64.47
804;BME280;25687;49.976;8.240;2023-02-26T11:07:51;100509.13;;;1.31;65.82
804;BME280;25687;49.976;8.240;2023-02-26T11:10:25;100501.63;;;1.19;68.34
804;BME280;25687;49.976;8.240;2023-02-26T11:12:51;100496.59;;;1.14;66.18
804;BME280;25687;49.976;8.240;2023-02-26T11:15:20;100498.31;;;1.13;65.16
804;BME280;25687;49.976;8.240;2023-02-26T11:17:47;100500.63;;;1.35;64.87
804;BME280;25687;49.976;8.240;2023-02-26T11:20:25;100501.44;;;1.40;63.83
804;BME280;25687;49.976;8.240;2023-02-26T11:22:53;100486.19;;;1.42;63.75
804;BME280;25687;49.976;8.240;2023-02-26T11:25:28;100492.88;;;1.51;62.52
804;BME280;25687;49.976;8.240;2023-02-26T11:28:06;100489.41;;;1.58;62.42
804;BME280;25687;49.976;8.240;2023-02-26T11:30:37;100489.47;;;1.52;61.81
804;BME280;25687;49.976;8.240;2023-02-26T11:33:17;100495.44;;;1.46;62.71
804;BME280;25687;49.976;8.240;2023-02-26T11:35:45;100480.03;;;1.65;61.67
804;BME280;25687;49.976;8.240;2023-02-26T11:38:20;100476.63;;;1.69;61.41
804;BME280;25687;49.976;8.240;2023-02-26T11:40:49;100492.00;;;1.53;62.08
804;BME280;25687;49.976;8.240;2023-02-26T11:43:18;100485.03;;;1.71;60.43
804;BME280;25687;49.976;8.240;2023-02-26T11:45:47;100496.00;;;1.73;59.50
804;BME280;25687;49.976;8.240;2023-02-26T11:48:20;100478.97;;;1.84;60.15
804;BME280;25687;49.976;8.240;2023-02-26T11:50:52;100487.16;;;2.03;59.56
804;BME280;25687;49.976;8.240;2023-02-26T11:55:52;100485.34;;;2.15;59.11
804;BME280;25687;49.976;8.240;2023-02-26T11:58:20;100479.38;;;2.17;58.68
804;BME280;25687;49.976;8.240;2023-02-26T12:00:46;100484.38;;;2.23;58.70
804;BME280;25687;49.976;8.240;2023-02-26T12:03:22;100482.66;;;2.27;58.05
804;BME280;25687;49.976;8.240;2023-02-26T12:05:49;100475.28;;;2.07;58.13
804;BME280;25687;49.976;8.240;2023-02-26T12:08:36;100482.00;;;2.11;58.22
804;BME280;25687;49.976;8.240;2023-02-26T12:11:19;100478.09;;;2.48;58.59
804;BME280;25687;49.976;8.240;2023-02-26T12:14:03;100481.50;;;2.47;57.58
804;BME280;25687;49.976;8.240;2023-02-26T12:19:45;100479.72;;;1.92;58.51
804;BME280;25687;49.976;8.240;2023-02-26T12:22:26;100471.31;;;1.89;59.08
804;BME280;25687;49.976;8.240;2023-02-26T12:35:40;100479.28;;;2.25;56.10
804;BME280;25687;49.976;8.240;2023-02-26T12:41:18;100479.78;;;2.49;56.40
804;BME280;25687;49.976;8.240;2023-02-26T12:43:55;100475.63;;;2.43;56.67
804;BME280;25687;49.976;8.240;2023-02-26T12:49:30;100481.03;;;2.20;58.57
804;BME280;25687;49.976;8.240;2023-02-26T13:06:33;100490.13;;;2.36;57.27
804;BME280;25687;49.976;8.240;2023-02-26T13:12:14;100482.34;;;2.47;57.04
804;BME280;25687;49.976;8.240;2023-02-26T13:14:52;100485.81;;;2.41;56.80
804;BME280;25687;49.976;8.240;2023-02-26T13:17:28;100485.75;;;2.46;56.59
804;BME280;25687;49.976;8.240;2023-02-26T13:20:19;100505.56;;;2.19;57.85
804;BME280;25687;49.976;8.240;2023-02-26T13:22:50;100503.91;;;2.17;58.74
804;BME280;25687;49.976;8.240;2023-02-26T13:25:30;100498.91;;;2.14;58.27
804;BME280;25687;49.976;8.240;2023-02-26T13:28:00;100501.44;;;2.12;57.50
804;BME280;25687;49.976;8.240;2023-02-26T13:30:34;100507.06;;;2.36;57.83
804;BME280;25687;49.976;8.240;2023-02-26T13:33:01;100512.28;;;2.25;57.63
804;BME280;25687;49.976;8.240;2023-02-26T13:35:37;100505.47;;;2.29;58.01
804;BME280;25687;49.976;8.240;2023-02-26T13:38:20;100504.66;;;2.25;58.11
804;BME280;25687;49.976;8.240;2023-02-26T13:49:12;100501.88;;;2.40;57.03
804;BME280;25687;49.976;8.240;2023-02-26T13:51:45;100501.75;;;2.51;58.85
804;BME280;25687;49.976;8.240;2023-02-26T14:01:54;100510.91;;;2.63;62.60
804;BME280;25687;49.976;8.240;2023-02-26T14:07:14;100515.81;;;2.15;62.99
804;BME280;25687;49.976;8.240;2023-02-26T14:10:00;100504.91;;;2.06;64.80
804;BME280;25687;49.976;8.240;2023-02-26T14:12:41;100511.66;;;2.06;64.92
804;BME280;25687;49.976;8.240;2023-02-26T14:17:38;100512.34;;;2.19;65.75
804;BME280;25687;49.976;8.240;2023-02-26T14:20:22;100524.28;;;2.14;63.87
804;BME280;25687;49.976;8.240;2023-02-26T14:23:21;100526.16;;;1.98;64.91
804;BME280;25687;49.976;8.240;2023-02-26T14:25:52;100514.19;;;2.06;65.24
804;BME280;25687;49.976;8.240;2023-02-26T14:33:29;100531.97;;;2.06;68.60
804;BME280;25687;49.976;8.240;2023-02-26T14:36:15;100526.88;;;2.06;68.19
804;BME280;25687;49.976;8.240;2023-02-26T14:38:41;100542.88;;;2.13;67.98
804;BME280;25687;49.976;8.240;2023-02-26T14:41:19;100533.78;;;1.98;68.30
804;BME280;25687;49.976;8.240;2023-02-26T14:43:56;100537.19;;;1.95;68.46
804;BME280;25687;49.976;8.240;2023-02-26T14:46:26;100533.88;;;1.88;69.30
804;BME280;25687;49.976;8.240;2023-02-26T14:48:52;100539.66;;;2.01;68.06
804;BME280;25687;49.976;8.240;2023-02-26T14:51:33;100542.91;;;2.09;67.61
804;BME280;25687;49.976;8.240;2023-02-26T14:56:44;100541.41;;;1.96;62.79
804;BME280;25687;49.976;8.240;2023-02-26T15:04:56;100544.41;;;2.24;61.66
804;BME280;25687;49.976;8.240;2023-02-26T15:07:39;100534.25;;;2.24;62.12
804;BME280;25687;49.976;8.240;2023-02-26T15:10:21;100534.97;;;2.36;63.31
804;BME280;25687;49.976;8.240;2023-02-26T15:18:44;100553.78;;;2.22;60.44
804;BME280;25687;49.976;8.240;2023-02-26T15:21:25;100542.59;;;2.34;60.43
804;BME280;25687;49.976;8.240;2023-02-26T15:23:56;100544.31;;;2.34;60.91
804;BME280;25687;49.976;8.240;2023-02-26T15:26:23;100565.56;;;2.26;57.64
804;BME280;25687;49.976;8.240;2023-02-26T15:28:52;100569.06;;;2.18;55.77